sensor_id;sensor_type;location;lat;lon;timestamp;P1;durP1;ratioP1;P2;durP2;ratioP2
2850;SDS011;1433;49.976;8.342;2024-02-26T00:00:41;1.60;;;1.50;;
2850;SDS011;1433;49.976;8.342;2024-02-26T00:03:07;2.10;;;1.70;;
2850;SDS011;1433;49.976;8.342;2024-02-26T00:05:33;1.50;;;1.40;;
2850;SDS011;1433;49.976;8.342;2024-02-26T00:07:59;3.73;;;1.90;;
2850;SDS011;1433;49.976;8.342;2024-02-26T00:10:25;1.77;;;1.50;;
2850;SDS011;1433;49.976;8.342;2024-02-26T00:12:50;2.60;;;1.67;;
2850;SDS011;1433;49.976;8.342;2024-02-26T00:15:16;2.10;;;1.80;;
2850;SDS011;1433;49.976;8.342;2024-02-26T00:17:42;3.13;;;1.90;;
2850;SDS011;1433;49.976;8.342;2024-02-26T00:20:09;3.43;;;1.40;;
2850;SDS011;1433;49.976;8.342;2024-02-26T00:22:36;2.20;;;1.50;;
2850;SDS011;1433;49.976;8.342;2024-02-26T00:25:03;3.23;;;1.93;;
2850;SDS011;1433;49.976;8.342;2024-02-26T00:27:30;1.83;;;1.60;;
2850;SDS011;1433;49.976;8.342;2024-02-26T00:29:56;1.53;;;1.43;;
2850;SDS011;1433;49.976;8.342;2024-02-26T00:32:21;2.20;;;1.90;;
2850;SDS011;1433;49.976;8.342;2024-02-26T00:34:48;1.83;;;1.43;;
2850;SDS011;1433;49.976;8.342;2024-02-26T00:37:14;1.60;;;1.50;;
2850;SDS011;1433;49.976;8.342;2024-02-26T00:39:39;2.37;;;1.63;;
2850;SDS011;1433;49.976;8.342;2024-02-26T00:42:05;2.30;;;1.50;;
2850;SDS011;1433;49.976;8.342;2024-02-26T00:44:31;1.73;;;1.50;;
2850;SDS011;1433;49.976;8.342;2024-02-26T00:46:57;1.93;;;1.50;;
2850;SDS011;1433;49.976;8.342;2024-02-26T00:49:23;3.07;;;1.63;;
2850;SDS011;1433;49.976;8.342;2024-02-26T00:51:49;1.40;;;1.27;;
2850;SDS011;1433;49.976;8.342;2024-02-26T00:54:15;2.03;;;1.70;;
2850;SDS011;1433;49.976;8.342;2024-02-26T00:56:40;2.00;;;1.43;;
2850;SDS011;1433;49.976;8.342;2024-02-26T00:59:06;2.20;;;1.67;;
2850;SDS011;1433;49.976;8.342;2024-02-26T01:01:32;3.10;;;1.90;;
2850;SDS011;1433;49.976;8.342;2024-02-26T01:03:58;2.67;;;1.93;;
2850;SDS011;1433;49.976;8.342;2024-02-26T01:06:24;1.60;;;1.50;;
2850;SDS011;1433;49.976;8.342;2024-02-26T01:08:49;1.67;;;1.57;;
2850;SDS011;1433;49.976;8.342;2024-02-26T01:11:15;2.40;;;1.63;;
2850;SDS011;1433;49.976;8.342;2024-02-26T01:13:41;1.93;;;1.47;;
2850;SDS011;1433;49.976;8.342;2024-02-26T01:16:07;2.60;;;1.70;;
2850;SDS011;1433;49.976;8.342;2024-02-26T01:18:33;1.47;;;1.37;;
2850;SDS011;1433;49.976;8.342;2024-02-26T01:20:59;1.80;;;1.63;;
2850;SDS011;1433;49.976;8.342;2024-02-26T01:23:25;3.00;;;1.47;;
2850;SDS011;1433;49.976;8.342;2024-02-26T01:25:50;1.40;;;1.30;;
2850;SDS011;1433;49.976;8.342;2024-02-26T01:28:16;3.63;;;1.63;;
2850;SDS011;1433;49.976;8.342;2024-02-26T01:30:42;1.57;;;1.47;;
2850;SDS011;1433;49.976;8.342;2024-02-26T01:33:08;2.53;;;1.63;;
2850;SDS011;1433;49.976;8.342;2024-02-26T01:35:34;1.77;;;1.67;;
2850;SDS011;1433;49.976;8.342;2024-02-26T01:38:00;2.03;;;1.80;;
2850;SDS011;1433;49.976;8.342;2024-02-26T01:40:29;1.50;;;1.33;;
2850;SDS011;1433;49.976;8.342;2024-02-26T01:42:55;3.67;;;1.93;;
2850;SDS011;1433;49.976;8.342;2024-02-26T01:45:21;1.87;;;1.73;;
2850;SDS011;1433;49.976;8.342;2024-02-26T01:47:52;1.80;;;1.53;;
2850;SDS011;1433;49.976;8.342;2024-02-26T01:50:19;1.80;;;1.60;;
2850;SDS011;1433;49.976;8.342;2024-02-26T01:52:47;2.23;;;2.00;;
2850;SDS011;1433;49.976;8.342;2024-02-26T01:55:15;2.37;;;2.17;;
2850;SDS011;1433;49.976;8.342;2024-02-26T01:57:43;2.03;;;1.60;;
2850;SDS011;1433;49.976;8.342;2024-02-26T02:00:12;2.30;;;1.80;;
2850;SDS011;1433;49.976;8.342;2024-02-26T02:02:39;3.20;;;2.33;;
2850;SDS011;1433;49.976;8.342;2024-02-26T02:05:07;2.20;;;1.50;;
2850;SDS011;1433;49.976;8.342;2024-02-26T02:07:34;2.30;;;2.00;;
2850;SDS011;1433;49.976;8.342;2024-02-26T02:10:01;5.77;;;2.80;;
2850;SDS011;1433;49.976;8.342;2024-02-26T02:12:28;1.87;;;1.67;;
2850;SDS011;1433;49.976;8.342;2024-02-26T02:14:53;3.50;;;2.30;;
2850;SDS011;1433;49.976;8.342;2024-02-26T02:17:20;1.70;;;1.50;;
2850;SDS011;1433;49.976;8.342;2024-02-26T02:19:46;2.20;;;2.00;;
2850;SDS011;1433;49.976;8.342;2024-02-26T02:22:12;2.53;;;1.83;;
2850;SDS011;1433;49.976;8.342;2024-02-26T02:24:38;1.60;;;1.50;;
2850;SDS011;1433;49.976;8.342;2024-02-26T02:27:03;1.57;;;1.37;;
2850;SDS011;1433;49.976;8.342;2024-02-26T02:29:30;2.73;;;2.00;;
2850;SDS011;1433;49.976;8.342;2024-02-26T02:31:55;1.73;;;1.50;;
2850;SDS011;1433;49.976;8.342;2024-02-26T02:34:22;2.67;;;1.90;;
2850;SDS011;1433;49.976;8.342;2024-02-26T02:36:52;2.60;;;1.80;;
2850;SDS011;1433;49.976;8.342;2024-02-26T02:39:18;1.97;;;1.50;;
2850;SDS011;1433;49.976;8.342;2024-02-26T02:41:44;4.37;;;2.57;;
2850;SDS011;1433;49.976;8.342;2024-02-26T02:44:10;3.33;;;2.03;;
2850;SDS011;1433;49.976;8.342;2024-02-26T02:46:36;1.90;;;1.80;;
2850;SDS011;1433;49.976;8.342;2024-02-26T02:49:02;2.73;;;2.10;;
2850;SDS011;1433;49.976;8.342;2024-02-26T02:51:28;2.83;;;2.17;;
2850;SDS011;1433;49.976;8.342;2024-02-26T02:53:54;2.33;;;1.83;;
2850;SDS011;1433;49.976;8.342;2024-02-26T02:56:20;2.33;;;1.87;;
2850;SDS011;1433;49.976;8.342;2024-02-26T02:58:45;2.20;;;2.00;;
2850;SDS011;1433;49.976;8.342;2024-02-26T03:01:13;4.17;;;1.70;;
2850;SDS011;1433;49.976;8.342;2024-02-26T03:03:38;4.23;;;1.63;;
2850;SDS011;1433;49.976;8.342;2024-02-26T03:06:04;1.63;;;1.53;;
2850;SDS011;1433;49.976;8.342;2024-02-26T03:08:30;1.70;;;1.60;;
2850;SDS011;1433;49.976;8.342;2024-02-26T03:10:58;2.50;;;1.70;;
2850;SDS011;1433;49.976;8.342;2024-02-26T03:13:24;2.30;;;1.87;;
2850;SDS011;1433;49.976;8.342;2024-02-26T03:15:50;2.87;;;2.60;;
2850;SDS011;1433;49.976;8.342;2024-02-26T03:18:16;1.97;;;1.60;;
2850;SDS011;1433;49.976;8.342;2024-02-26T03:20:42;2.30;;;1.70;;
2850;SDS011;1433;49.976;8.342;2024-02-26T03:23:08;3.17;;;1.80;;
2850;SDS011;1433;49.976;8.342;2024-02-26T03:25:38;2.60;;;1.93;;
2850;SDS011;1433;49.976;8.342;2024-02-26T03:28:04;1.70;;;1.60;;
2850;SDS011;1433;49.976;8.342;2024-02-26T03:30:30;1.63;;;1.40;;
2850;SDS011;1433;49.976;8.342;2024-02-26T03:32:56;2.17;;;1.77;;
2850;SDS011;1433;49.976;8.342;2024-02-26T03:35:22;1.70;;;1.60;;
2850;SDS011;1433;49.976;8.342;2024-02-26T03:37:47;2.60;;;1.77;;
2850;SDS011;1433;49.976;8.342;2024-02-26T03:40:15;2.37;;;2.00;;
2850;SDS011;1433;49.976;8.342;2024-02-26T03:42:43;2.20;;;2.00;;
2850;SDS011;1433;49.976;8.342;2024-02-26T03:45:09;2.27;;;1.80;;
2850;SDS011;1433;49.976;8.342;2024-02-26T03:47:37;2.00;;;1.80;;
2850;SDS011;1433;49.976;8.342;2024-02-26T03:50:06;5.23;;;2.50;;
2850;SDS011;1433;49.976;8.342;2024-02-26T03:52:33;2.10;;;1.67;;
2850;SDS011;1433;49.976;8.342;2024-02-26T03:54:59;1.73;;;1.50;;
2850;SDS011;1433;49.976;8.342;2024-02-26T03:57:25;2.87;;;2.57;;
2850;SDS011;1433;49.976;8.342;2024-02-26T03:59:51;2.40;;;1.83;;
2850;SDS011;1433;49.976;8.342;2024-02-26T04:02:17;2.03;;;1.60;;
2850;SDS011;1433;49.976;8.342;2024-02-26T04:04:45;3.10;;;2.53;;
2850;SDS011;1433;49.976;8.342;2024-02-26T04:07:12;2.13;;;1.93;;
2850;SDS011;1433;49.976;8.342;2024-02-26T04:09:38;2.20;;;2.00;;
2850;SDS011;1433;49.976;8.342;2024-02-26T04:12:04;2.20;;;1.97;;
2850;SDS011;1433;49.976;8.342;2024-02-26T04:14:31;2.53;;;1.90;;
2850;SDS011;1433;49.976;8.342;2024-02-26T04:16:56;2.37;;;2.00;;
2850;SDS011;1433;49.976;8.342;2024-02-26T04:19:22;2.10;;;1.90;;
2850;SDS011;1433;49.976;8.342;2024-02-26T04:21:48;2.87;;;1.70;;
2850;SDS011;1433;49.976;8.342;2024-02-26T04:24:14;3.73;;;2.30;;
2850;SDS011;1433;49.976;8.342;2024-02-26T04:26:40;2.30;;;2.10;;
2850;SDS011;1433;49.976;8.342;2024-02-26T04:29:06;3.63;;;2.70;;
2850;SDS011;1433;49.976;8.342;2024-02-26T04:31:32;2.37;;;1.97;;
2850;SDS011;1433;49.976;8.342;2024-02-26T04:33:58;3.27;;;2.63;;
2850;SDS011;1433;49.976;8.342;2024-02-26T04:36:24;2.73;;;2.20;;
2850;SDS011;1433;49.976;8.342;2024-02-26T04:38:51;3.83;;;2.57;;
2850;SDS011;1433;49.976;8.342;2024-02-26T04:41:19;3.70;;;2.93;;
2850;SDS011;1433;49.976;8.342;2024-02-26T04:43:45;3.20;;;2.67;;
2850;SDS011;1433;49.976;8.342;2024-02-26T04:46:11;2.33;;;1.87;;
2850;SDS011;1433;49.976;8.342;2024-02-26T04:48:37;3.47;;;3.17;;
2850;SDS011;1433;49.976;8.342;2024-02-26T04:51:11;2.20;;;1.83;;
2850;SDS011;1433;49.976;8.342;2024-02-26T04:53:37;2.53;;;2.27;;
2850;SDS011;1433;49.976;8.342;2024-02-26T04:56:03;3.20;;;2.00;;
2850;SDS011;1433;49.976;8.342;2024-02-26T04:58:29;3.07;;;2.73;;
2850;SDS011;1433;49.976;8.342;2024-02-26T05:00:55;2.80;;;2.47;;
2850;SDS011;1433;49.976;8.342;2024-02-26T05:03:21;2.07;;;1.87;;
2850;SDS011;1433;49.976;8.342;2024-02-26T05:05:47;3.10;;;2.47;;
2850;SDS011;1433;49.976;8.342;2024-02-26T05:08:13;3.23;;;2.50;;
2850;SDS011;1433;49.976;8.342;2024-02-26T05:10:39;2.90;;;2.70;;
2850;SDS011;1433;49.976;8.342;2024-02-26T05:13:06;5.00;;;2.20;;
2850;SDS011;1433;49.976;8.342;2024-02-26T05:15:32;3.17;;;2.10;;
2850;SDS011;1433;49.976;8.342;2024-02-26T05:17:58;3.93;;;2.40;;
2850;SDS011;1433;49.976;8.342;2024-02-26T05:20:24;2.63;;;2.27;;
2850;SDS011;1433;49.976;8.342;2024-02-26T05:22:50;4.17;;;2.60;;
2850;SDS011;1433;49.976;8.342;2024-02-26T05:25:17;3.00;;;2.70;;
2850;SDS011;1433;49.976;8.342;2024-02-26T05:27:43;3.90;;;2.20;;
2850;SDS011;1433;49.976;8.342;2024-02-26T05:30:10;2.93;;;2.33;;
2850;SDS011;1433;49.976;8.342;2024-02-26T05:32:36;2.90;;;2.60;;
2850;SDS011;1433;49.976;8.342;2024-02-26T05:35:03;2.17;;;1.97;;
2850;SDS011;1433;49.976;8.342;2024-02-26T05:37:29;2.63;;;2.33;;
2850;SDS011;1433;49.976;8.342;2024-02-26T05:39:55;10.30;;;2.83;;
2850;SDS011;1433;49.976;8.342;2024-02-26T05:42:21;2.73;;;2.33;;
2850;SDS011;1433;49.976;8.342;2024-02-26T05:44:47;2.70;;;2.50;;
2850;SDS011;1433;49.976;8.342;2024-02-26T05:47:13;3.97;;;3.10;;
2850;SDS011;1433;49.976;8.342;2024-02-26T05:49:39;3.73;;;3.40;;
2850;SDS011;1433;49.976;8.342;2024-02-26T05:52:05;2.87;;;2.53;;
2850;SDS011;1433;49.976;8.342;2024-02-26T05:54:31;4.90;;;3.00;;
2850;SDS011;1433;49.976;8.342;2024-02-26T05:56:57;5.60;;;3.20;;
2850;SDS011;1433;49.976;8.342;2024-02-26T05:59:23;6.67;;;3.60;;
2850;SDS011;1433;49.976;8.342;2024-02-26T06:01:49;4.40;;;2.80;;
2850;SDS011;1433;49.976;8.342;2024-02-26T06:04:15;4.07;;;3.27;;
2850;SDS011;1433;49.976;8.342;2024-02-26T06:06:44;3.03;;;2.30;;
2850;SDS011;1433;49.976;8.342;2024-02-26T06:09:13;4.53;;;4.13;;
2850;SDS011;1433;49.976;8.342;2024-02-26T06:11:39;3.70;;;2.33;;
2850;SDS011;1433;49.976;8.342;2024-02-26T06:14:05;4.23;;;3.20;;
2850;SDS011;1433;49.976;8.342;2024-02-26T06:16:31;3.83;;;3.43;;
2850;SDS011;1433;49.976;8.342;2024-02-26T06:18:56;4.03;;;3.43;;
2850;SDS011;1433;49.976;8.342;2024-02-26T06:21:23;4.60;;;4.07;;
2850;SDS011;1433;49.976;8.342;2024-02-26T06:23:48;5.70;;;3.10;;
2850;SDS011;1433;49.976;8.342;2024-02-26T06:26:15;2.50;;;2.30;;
2850;SDS011;1433;49.976;8.342;2024-02-26T06:28:41;4.60;;;3.37;;
2850;SDS011;1433;49.976;8.342;2024-02-26T06:31:07;4.13;;;2.93;;
2850;SDS011;1433;49.976;8.342;2024-02-26T06:33:33;6.67;;;3.63;;
2850;SDS011;1433;49.976;8.342;2024-02-26T06:35:59;4.83;;;3.30;;
2850;SDS011;1433;49.976;8.342;2024-02-26T06:38:25;4.20;;;3.00;;
2850;SDS011;1433;49.976;8.342;2024-02-26T06:40:51;5.13;;;3.30;;
2850;SDS011;1433;49.976;8.342;2024-02-26T06:43:16;6.80;;;3.40;;
2850;SDS011;1433;49.976;8.342;2024-02-26T06:45:42;5.10;;;3.70;;
2850;SDS011;1433;49.976;8.342;2024-02-26T06:48:08;8.03;;;4.40;;
2850;SDS011;1433;49.976;8.342;2024-02-26T06:50:34;4.73;;;4.00;;
2850;SDS011;1433;49.976;8.342;2024-02-26T06:53:00;6.43;;;3.70;;
2850;SDS011;1433;49.976;8.342;2024-02-26T06:55:26;4.90;;;3.40;;
2850;SDS011;1433;49.976;8.342;2024-02-26T06:57:51;5.87;;;3.67;;
2850;SDS011;1433;49.976;8.342;2024-02-26T07:00:17;6.43;;;4.33;;
2850;SDS011;1433;49.976;8.342;2024-02-26T07:02:43;4.43;;;4.07;;
2850;SDS011;1433;49.976;8.342;2024-02-26T07:05:09;4.00;;;3.60;;
2850;SDS011;1433;49.976;8.342;2024-02-26T07:07:35;4.20;;;3.80;;
2850;SDS011;1433;49.976;8.342;2024-02-26T07:10:01;7.00;;;4.40;;
2850;SDS011;1433;49.976;8.342;2024-02-26T07:12:31;5.43;;;4.33;;
2850;SDS011;1433;49.976;8.342;2024-02-26T07:14:57;7.97;;;4.70;;
2850;SDS011;1433;49.976;8.342;2024-02-26T07:17:23;5.30;;;4.13;;
2850;SDS011;1433;49.976;8.342;2024-02-26T07:19:49;4.90;;;4.20;;
2850;SDS011;1433;49.976;8.342;2024-02-26T07:22:15;4.53;;;4.13;;
2850;SDS011;1433;49.976;8.342;2024-02-26T07:24:41;4.33;;;3.93;;
2850;SDS011;1433;49.976;8.342;2024-02-26T07:27:07;3.80;;;3.50;;
2850;SDS011;1433;49.976;8.342;2024-02-26T07:29:33;5.07;;;4.00;;
2850;SDS011;1433;49.976;8.342;2024-02-26T07:31:59;4.77;;;4.37;;
2850;SDS011;1433;49.976;8.342;2024-02-26T07:34:25;5.33;;;4.00;;
2850;SDS011;1433;49.976;8.342;2024-02-26T07:36:54;4.50;;;4.10;;
2850;SDS011;1433;49.976;8.342;2024-02-26T07:39:21;8.33;;;4.07;;
2850;SDS011;1433;49.976;8.342;2024-02-26T07:41:47;6.57;;;4.40;;
2850;SDS011;1433;49.976;8.342;2024-02-26T07:44:16;5.40;;;3.80;;
2850;SDS011;1433;49.976;8.342;2024-02-26T07:46:42;5.20;;;3.47;;
2850;SDS011;1433;49.976;8.342;2024-02-26T07:49:08;4.27;;;3.53;;
2850;SDS011;1433;49.976;8.342;2024-02-26T07:51:34;4.43;;;4.00;;
2850;SDS011;1433;49.976;8.342;2024-02-26T07:54:00;5.60;;;3.53;;
2850;SDS011;1433;49.976;8.342;2024-02-26T07:56:26;5.37;;;3.53;;
2850;SDS011;1433;49.976;8.342;2024-02-26T07:58:52;6.00;;;3.93;;
2850;SDS011;1433;49.976;8.342;2024-02-26T08:01:17;6.87;;;4.43;;
2850;SDS011;1433;49.976;8.342;2024-02-26T08:03:43;9.90;;;4.30;;
2850;SDS011;1433;49.976;8.342;2024-02-26T08:06:09;5.70;;;3.50;;
2850;SDS011;1433;49.976;8.342;2024-02-26T08:08:35;5.47;;;3.83;;
2850;SDS011;1433;49.976;8.342;2024-02-26T08:11:01;5.73;;;4.20;;
2850;SDS011;1433;49.976;8.342;2024-02-26T08:13:27;4.97;;;4.00;;
2850;SDS011;1433;49.976;8.342;2024-02-26T08:15:53;4.40;;;3.37;;
2850;SDS011;1433;49.976;8.342;2024-02-26T08:18:19;5.07;;;4.20;;
2850;SDS011;1433;49.976;8.342;2024-02-26T08:20:45;4.07;;;3.67;;
2850;SDS011;1433;49.976;8.342;2024-02-26T08:23:11;4.80;;;3.90;;
2850;SDS011;1433;49.976;8.342;2024-02-26T08:25:36;6.53;;;4.30;;
2850;SDS011;1433;49.976;8.342;2024-02-26T08:28:02;6.00;;;4.60;;
2850;SDS011;1433;49.976;8.342;2024-02-26T08:30:29;4.33;;;3.63;;
2850;SDS011;1433;49.976;8.342;2024-02-26T08:32:54;6.37;;;4.00;;
2850;SDS011;1433;49.976;8.342;2024-02-26T08:35:20;6.10;;;4.80;;
2850;SDS011;1433;49.976;8.342;2024-02-26T08:37:47;4.40;;;4.00;;
2850;SDS011;1433;49.976;8.342;2024-02-26T08:40:14;5.03;;;3.80;;
2850;SDS011;1433;49.976;8.342;2024-02-26T08:42:40;7.80;;;4.50;;
2850;SDS011;1433;49.976;8.342;2024-02-26T08:45:07;4.50;;;4.10;;
2850;SDS011;1433;49.976;8.342;2024-02-26T08:47:34;5.20;;;3.97;;
2850;SDS011;1433;49.976;8.342;2024-02-26T08:50:03;4.17;;;3.77;;
2850;SDS011;1433;49.976;8.342;2024-02-26T08:52:30;5.37;;;3.47;;
2850;SDS011;1433;49.976;8.342;2024-02-26T08:54:56;5.47;;;4.63;;
2850;SDS011;1433;49.976;8.342;2024-02-26T08:57:22;5.10;;;4.07;;
2850;SDS011;1433;49.976;8.342;2024-02-26T08:59:48;4.13;;;3.60;;
2850;SDS011;1433;49.976;8.342;2024-02-26T09:02:14;4.50;;;3.43;;
2850;SDS011;1433;49.976;8.342;2024-02-26T09:04:40;4.97;;;4.57;;
2850;SDS011;1433;49.976;8.342;2024-02-26T09:07:06;6.00;;;4.67;;
2850;SDS011;1433;49.976;8.342;2024-02-26T09:09:31;3.97;;;3.67;;
2850;SDS011;1433;49.976;8.342;2024-02-26T09:11:57;4.97;;;4.47;;
2850;SDS011;1433;49.976;8.342;2024-02-26T09:14:23;8.80;;;8.00;;
2850;SDS011;1433;49.976;8.342;2024-02-26T09:16:49;9.80;;;4.80;;
2850;SDS011;1433;49.976;8.342;2024-02-26T09:19:15;6.33;;;4.17;;
2850;SDS011;1433;49.976;8.342;2024-02-26T09:21:44;4.40;;;4.00;;
2850;SDS011;1433;49.976;8.342;2024-02-26T09:24:11;5.17;;;4.10;;
2850;SDS011;1433;49.976;8.342;2024-02-26T09:26:37;5.63;;;4.03;;
2850;SDS011;1433;49.976;8.342;2024-02-26T09:29:03;7.90;;;5.23;;
2850;SDS011;1433;49.976;8.342;2024-02-26T09:31:30;6.40;;;3.93;;
2850;SDS011;1433;49.976;8.342;2024-02-26T09:33:56;6.67;;;4.77;;
2850;SDS011;1433;49.976;8.342;2024-02-26T09:36:23;5.97;;;3.33;;
2850;SDS011;1433;49.976;8.342;2024-02-26T09:38:49;8.00;;;5.37;;
2850;SDS011;1433;49.976;8.342;2024-02-26T09:41:14;5.27;;;4.60;;
2850;SDS011;1433;49.976;8.342;2024-02-26T09:43:42;6.87;;;4.40;;
2850;SDS011;1433;49.976;8.342;2024-02-26T09:46:13;6.97;;;4.70;;
2850;SDS011;1433;49.976;8.342;2024-02-26T09:48:40;5.13;;;4.63;;
2850;SDS011;1433;49.976;8.342;2024-02-26T09:51:10;4.50;;;4.10;;
2850;SDS011;1433;49.976;8.342;2024-02-26T09:53:36;6.33;;;5.00;;
2850;SDS011;1433;49.976;8.342;2024-02-26T09:56:08;4.63;;;4.23;;
2850;SDS011;1433;49.976;8.342;2024-02-26T09:58:34;7.23;;;5.17;;
2850;SDS011;1433;49.976;8.342;2024-02-26T10:01:03;5.37;;;3.83;;
2850;SDS011;1433;49.976;8.342;2024-02-26T10:03:42;5.17;;;4.63;;
2850;SDS011;1433;49.976;8.342;2024-02-26T10:06:12;7.00;;;4.30;;
2850;SDS011;1433;49.976;8.342;2024-02-26T10:08:39;6.83;;;4.90;;
2850;SDS011;1433;49.976;8.342;2024-02-26T10:11:06;4.60;;;4.00;;
2850;SDS011;1433;49.976;8.342;2024-02-26T10:13:34;7.27;;;4.60;;
2850;SDS011;1433;49.976;8.342;2024-02-26T10:16:02;4.80;;;4.17;;
2850;SDS011;1433;49.976;8.342;2024-02-26T10:21:16;4.77;;;3.93;;
2850;SDS011;1433;49.976;8.342;2024-02-26T10:23:43;5.90;;;4.80;;
2850;SDS011;1433;49.976;8.342;2024-02-26T10:26:12;5.60;;;3.67;;
2850;SDS011;1433;49.976;8.342;2024-02-26T10:28:41;4.70;;;4.00;;
2850;SDS011;1433;49.976;8.342;2024-02-26T10:31:09;5.07;;;4.53;;
2850;SDS011;1433;49.976;8.342;2024-02-26T10:33:36;5.60;;;3.60;;
2850;SDS011;1433;49.976;8.342;2024-02-26T10:36:06;10.43;;;6.93;;
2850;SDS011;1433;49.976;8.342;2024-02-26T10:38:34;5.53;;;4.87;;
2850;SDS011;1433;49.976;8.342;2024-02-26T10:41:05;6.90;;;4.57;;
2850;SDS011;1433;49.976;8.342;2024-02-26T10:43:33;5.70;;;4.40;;
2850;SDS011;1433;49.976;8.342;2024-02-26T10:45:59;7.77;;;4.60;;
2850;SDS011;1433;49.976;8.342;2024-02-26T10:48:31;5.03;;;4.63;;
2850;SDS011;1433;49.976;8.342;2024-02-26T10:50:58;6.03;;;4.70;;
2850;SDS011;1433;49.976;8.342;2024-02-26T10:53:26;5.77;;;4.87;;
2850;SDS011;1433;49.976;8.342;2024-02-26T10:55:57;4.57;;;4.13;;
2850;SDS011;1433;49.976;8.342;2024-02-26T10:58:26;5.90;;;4.30;;
2850;SDS011;1433;49.976;8.342;2024-02-26T11:00:54;4.90;;;4.20;;
2850;SDS011;1433;49.976;8.342;2024-02-26T11:03:22;7.00;;;4.27;;
2850;SDS011;1433;49.976;8.342;2024-02-26T11:05:50;7.00;;;4.40;;
2850;SDS011;1433;49.976;8.342;2024-02-26T11:08:19;6.60;;;4.67;;
2850;SDS011;1433;49.976;8.342;2024-02-26T11:10:47;6.10;;;4.33;;
2850;SDS011;1433;49.976;8.342;2024-02-26T11:13:14;6.37;;;4.03;;
2850;SDS011;1433;49.976;8.342;2024-02-26T11:15:44;5.67;;;4.00;;
2850;SDS011;1433;49.976;8.342;2024-02-26T11:18:19;8.77;;;4.90;;
2850;SDS011;1433;49.976;8.342;2024-02-26T11:20:48;6.23;;;4.40;;
2850;SDS011;1433;49.976;8.342;2024-02-26T11:23:16;4.73;;;4.20;;
2850;SDS011;1433;49.976;8.342;2024-02-26T11:25:42;9.57;;;5.30;;
2850;SDS011;1433;49.976;8.342;2024-02-26T11:28:09;8.57;;;4.80;;
2850;SDS011;1433;49.976;8.342;2024-02-26T11:30:38;8.23;;;4.50;;
2850;SDS011;1433;49.976;8.342;2024-02-26T11:33:09;4.83;;;4.33;;
2850;SDS011;1433;49.976;8.342;2024-02-26T11:35:37;8.23;;;4.97;;
2850;SDS011;1433;49.976;8.342;2024-02-26T11:38:04;4.50;;;4.00;;
2850;SDS011;1433;49.976;8.342;2024-02-26T11:40:32;7.50;;;6.20;;
2850;SDS011;1433;49.976;8.342;2024-02-26T11:43:04;6.60;;;4.33;;
2850;SDS011;1433;49.976;8.342;2024-02-26T11:48:14;5.90;;;4.60;;
2850;SDS011;1433;49.976;8.342;2024-02-26T11:50:48;4.23;;;3.70;;
2850;SDS011;1433;49.976;8.342;2024-02-26T11:53:20;8.23;;;4.20;;
2850;SDS011;1433;49.976;8.342;2024-02-26T11:56:19;7.23;;;4.90;;
2850;SDS011;1433;49.976;8.342;2024-02-26T11:59:03;6.87;;;4.80;;
2850;SDS011;1433;49.976;8.342;2024-02-26T12:01:35;4.37;;;3.97;;
2850;SDS011;1433;49.976;8.342;2024-02-26T12:04:12;6.47;;;3.93;;
2850;SDS011;1433;49.976;8.342;2024-02-26T12:06:50;5.60;;;5.07;;
2850;SDS011;1433;49.976;8.342;2024-02-26T12:11:57;4.50;;;4.10;;
2850;SDS011;1433;49.976;8.342;2024-02-26T12:14:26;5.63;;;4.00;;
2850;SDS011;1433;49.976;8.342;2024-02-26T12:16:52;4.30;;;3.90;;
2850;SDS011;1433;49.976;8.342;2024-02-26T12:19:20;5.00;;;4.53;;
2850;SDS011;1433;49.976;8.342;2024-02-26T12:21:50;7.83;;;3.63;;
2850;SDS011;1433;49.976;8.342;2024-02-26T12:24:20;5.30;;;3.57;;
2850;SDS011;1433;49.976;8.342;2024-02-26T12:26:46;5.97;;;5.30;;
2850;SDS011;1433;49.976;8.342;2024-02-26T12:29:12;5.30;;;4.80;;
2850;SDS011;1433;49.976;8.342;2024-02-26T12:31:39;4.77;;;4.03;;
2850;SDS011;1433;49.976;8.342;2024-02-26T12:34:06;5.03;;;4.53;;
2850;SDS011;1433;49.976;8.342;2024-02-26T12:36:35;4.67;;;3.47;;
2850;SDS011;1433;49.976;8.342;2024-02-26T12:39:03;8.13;;;6.10;;
2850;SDS011;1433;49.976;8.342;2024-02-26T12:41:31;4.40;;;4.00;;
2850;SDS011;1433;49.976;8.342;2024-02-26T12:43:58;4.90;;;4.40;;
2850;SDS011;1433;49.976;8.342;2024-02-26T12:46:25;5.60;;;3.77;;
2850;SDS011;1433;49.976;8.342;2024-02-26T12:48:51;3.83;;;3.50;;
2850;SDS011;1433;49.976;8.342;2024-02-26T12:51:17;5.57;;;4.13;;
2850;SDS011;1433;49.976;8.342;2024-02-26T12:53:46;6.37;;;4.37;;
2850;SDS011;1433;49.976;8.342;2024-02-26T12:56:15;5.97;;;4.07;;
2850;SDS011;1433;49.976;8.342;2024-02-26T12:58:41;3.40;;;3.10;;
2850;SDS011;1433;49.976;8.342;2024-02-26T13:01:08;5.40;;;4.10;;
2850;SDS011;1433;49.976;8.342;2024-02-26T13:03:43;4.13;;;3.40;;
2850;SDS011;1433;49.976;8.342;2024-02-26T13:06:09;6.13;;;4.80;;
2850;SDS011;1433;49.976;8.342;2024-02-26T13:08:35;7.70;;;4.50;;
2850;SDS011;1433;49.976;8.342;2024-02-26T13:11:01;5.20;;;4.00;;
2850;SDS011;1433;49.976;8.342;2024-02-26T13:13:27;4.73;;;4.30;;
2850;SDS011;1433;49.976;8.342;2024-02-26T13:16:03;4.27;;;3.80;;
2850;SDS011;1433;49.976;8.342;2024-02-26T13:18:36;4.53;;;4.10;;
2850;SDS011;1433;49.976;8.342;2024-02-26T13:23:40;4.30;;;2.73;;
2850;SDS011;1433;49.976;8.342;2024-02-26T13:26:07;4.13;;;3.77;;
2850;SDS011;1433;49.976;8.342;2024-02-26T13:28:37;21.63;;;4.40;;
2850;SDS011;1433;49.976;8.342;2024-02-26T13:31:03;3.70;;;3.33;;
2850;SDS011;1433;49.976;8.342;2024-02-26T13:33:32;3.63;;;3.10;;
2850;SDS011;1433;49.976;8.342;2024-02-26T13:35:59;3.70;;;3.40;;
2850;SDS011;1433;49.976;8.342;2024-02-26T13:38:29;14.73;;;5.13;;
2850;SDS011;1433;49.976;8.342;2024-02-26T13:40:55;3.33;;;3.03;;
2850;SDS011;1433;49.976;8.342;2024-02-26T13:43:21;4.07;;;3.37;;
2850;SDS011;1433;49.976;8.342;2024-02-26T13:45:47;5.70;;;3.20;;
2850;SDS011;1433;49.976;8.342;2024-02-26T13:48:13;8.80;;;3.47;;
2850;SDS011;1433;49.976;8.342;2024-02-26T13:50:40;6.03;;;3.40;;
2850;SDS011;1433;49.976;8.342;2024-02-26T13:53:11;6.30;;;3.50;;
2850;SDS011;1433;49.976;8.342;2024-02-26T13:55:38;4.00;;;3.60;;
2850;SDS011;1433;49.976;8.342;2024-02-26T13:58:07;3.77;;;3.37;;
2850;SDS011;1433;49.976;8.342;2024-02-26T14:00:37;3.70;;;3.00;;
2850;SDS011;1433;49.976;8.342;2024-02-26T14:03:03;6.70;;;4.97;;
2850;SDS011;1433;49.976;8.342;2024-02-26T14:05:29;5.80;;;3.80;;
2850;SDS011;1433;49.976;8.342;2024-02-26T14:07:55;5.50;;;3.77;;
2850;SDS011;1433;49.976;8.342;2024-02-26T14:10:21;4.73;;;3.67;;
2850;SDS011;1433;49.976;8.342;2024-02-26T14:12:47;3.90;;;3.43;;
2850;SDS011;1433;49.976;8.342;2024-02-26T14:15:12;7.37;;;4.10;;
2850;SDS011;1433;49.976;8.342;2024-02-26T14:17:38;4.67;;;4.17;;
2850;SDS011;1433;49.976;8.342;2024-02-26T14:20:04;6.20;;;3.73;;
2850;SDS011;1433;49.976;8.342;2024-02-26T14:22:32;5.37;;;3.70;;
2850;SDS011;1433;49.976;8.342;2024-02-26T14:24:58;5.83;;;2.87;;
2850;SDS011;1433;49.976;8.342;2024-02-26T14:27:25;3.97;;;3.67;;
2850;SDS011;1433;49.976;8.342;2024-02-26T14:29:51;6.30;;;4.97;;
2850;SDS011;1433;49.976;8.342;2024-02-26T14:32:16;4.37;;;3.97;;
2850;SDS011;1433;49.976;8.342;2024-02-26T14:34:42;4.80;;;4.30;;
2850;SDS011;1433;49.976;8.342;2024-02-26T14:37:08;6.00;;;3.90;;
2850;SDS011;1433;49.976;8.342;2024-02-26T14:39:34;3.83;;;3.43;;
2850;SDS011;1433;49.976;8.342;2024-02-26T14:42:00;6.53;;;4.77;;
2850;SDS011;1433;49.976;8.342;2024-02-26T14:44:26;4.67;;;3.70;;
2850;SDS011;1433;49.976;8.342;2024-02-26T14:46:52;8.70;;;4.40;;
2850;SDS011;1433;49.976;8.342;2024-02-26T14:49:18;4.57;;;4.03;;
2850;SDS011;1433;49.976;8.342;2024-02-26T14:51:44;5.70;;;4.70;;
2850;SDS011;1433;49.976;8.342;2024-02-26T14:54:11;6.93;;;3.87;;
2850;SDS011;1433;49.976;8.342;2024-02-26T14:56:37;6.23;;;4.03;;
2850;SDS011;1433;49.976;8.342;2024-02-26T14:59:03;6.30;;;4.23;;
2850;SDS011;1433;49.976;8.342;2024-02-26T15:01:30;4.87;;;4.27;;
2850;SDS011;1433;49.976;8.342;2024-02-26T15:03:56;4.70;;;3.40;;
2850;SDS011;1433;49.976;8.342;2024-02-26T15:06:22;4.43;;;3.20;;
2850;SDS011;1433;49.976;8.342;2024-02-26T15:08:48;6.00;;;3.80;;
2850;SDS011;1433;49.976;8.342;2024-02-26T15:11:14;5.30;;;3.80;;
2850;SDS011;1433;49.976;8.342;2024-02-26T15:13:41;5.20;;;4.00;;
2850;SDS011;1433;49.976;8.342;2024-02-26T15:16:07;4.87;;;3.10;;
2850;SDS011;1433;49.976;8.342;2024-02-26T15:18:34;3.50;;;2.80;;
2850;SDS011;1433;49.976;8.342;2024-02-26T15:21:02;5.70;;;3.90;;
2850;SDS011;1433;49.976;8.342;2024-02-26T15:23:28;5.23;;;3.77;;